Time;durP1;ratioP1;P1;durP2;ratioP2;P2;SDS_P1;SDS_P2;PMS_P1;PMS_P2;Temp;Humidity;BMP_temperature;BMP_pressure;BME280_temperature;BME280_humidity;BME280_pressure;Samples;Min_cycle;Max_cycle;Signal;HPM_P1;HPM_P2
2022/10/08 00:01:03;;;;;;;116.35;29.40;;;9.70;99.90;;;;;;5053046;28;20470;-51
2022/10/08 00:03:32;;;;;;;155.55;32.55;;;9.70;99.90;;;;;;5053243;28;20451;-51
2022/10/08 00:06:05;;;;;;;305.23;35.45;;;9.70;99.90;;;;;;5052885;28;20025;-51
2022/10/08 00:08:35;;;;;;;105.32;28.33;;;9.70;99.90;;;;;;5053031;28;20024;-50
2022/10/08 00:11:05;;;;;;;264.23;32.78;;;9.80;99.90;;;;;;5053017;28;20029;-51
2022/10/08 00:13:39;;;;;;;176.65;32.53;;;9.70;99.90;;;;;;5053006;28;20562;-52
2022/10/08 00:16:27;;;;;;;257.77;37.65;;;9.60;99.90;;;;;;5052334;28;20032;-51
2022/10/08 00:18:56;;;;;;;219.65;35.20;;;9.60;99.90;;;;;;5052919;28;20033;-52
2022/10/08 00:21:28;;;;;;;40.35;26.27;;;9.60;99.90;;;;;;5052746;28;20036;-52
2022/10/08 00:23:56;;;;;;;45.42;27.05;;;9.70;99.90;;;;;;5052754;28;20029;-51
2022/10/08 00:26:24;;;;;;;156.50;27.27;;;9.70;99.90;;;;;;5051903;28;20031;-53
2022/10/08 00:28:52;;;;;;;40.47;23.98;;;9.70;99.90;;;;;;5052731;28;20052;-51
2022/10/08 00:31:21;;;;;;;116.20;27.65;;;9.80;99.90;;;;;;5052603;28;20077;-52
2022/10/08 00:33:53;;;;;;;32.42;23.83;;;9.70;99.90;;;;;;5052656;28;20028;-51
2022/10/08 00:36:20;;;;;;;29.52;24.42;;;9.60;99.90;;;;;;5052462;28;20108;-52
2022/10/08 00:38:45;;;;;;;33.10;23.20;;;9.70;99.90;;;;;;5052382;28;20029;-51
2022/10/08 00:41:18;;;;;;;93.32;24.02;;;9.70;99.90;;;;;;5052426;28;20033;-51
2022/10/08 00:43:50;;;;;;;95.10;26.35;;;9.70;99.90;;;;;;5052410;28;20451;-50
2022/10/08 00:46:27;;;;;;;186.05;31.17;;;9.60;99.90;;;;;;5052125;28;20036;-52
2022/10/08 00:49:16;;;;;;;60.55;23.35;;;9.60;99.90;;;;;;5052233;28;20055;-53
2022/10/08 00:51:44;;;;;;;147.35;30.10;;;9.50;99.90;;;;;;5052376;28;20440;-52
2022/10/08 00:54:11;;;;;;;72.68;26.85;;;9.50;99.90;;;;;;5052007;28;20456;-54
2022/10/08 00:56:39;;;;;;;131.38;32.25;;;9.50;99.90;;;;;;5052331;28;20064;-53
2022/10/08 00:59:06;;;;;;;92.03;29.02;;;9.50;99.90;;;;;;5051830;28;20029;-52
2022/10/08 01:01:32;;;;;;;99.05;28.77;;;9.40;99.90;;;;;;5052194;28;20687;-52
2022/10/08 01:04:05;;;;;;;69.65;27.20;;;9.40;99.90;;;;;;5051751;28;20032;-51
2022/10/08 01:06:34;;;;;;;95.60;29.08;;;9.30;99.90;;;;;;5052018;28;20051;-54
2022/10/08 01:09:03;;;;;;;96.60;29.02;;;9.30;99.90;;;;;;5051623;28;20579;-52
2022/10/08 01:11:44;;;;;;;38.28;25.80;;;9.30;99.90;;;;;;5051949;28;20033;-52
2022/10/08 01:14:40;;;;;;;63.03;26.17;;;9.40;99.90;;;;;;5051559;28;20125;-53
2022/10/08 01:17:26;;;;;;;48.03;25.23;;;9.30;99.90;;;;;;5050897;28;20082;-50
2022/10/08 01:19:54;;;;;;;56.88;25.48;;;9.20;99.90;;;;;;5051521;28;20041;-51
2022/10/08 01:22:41;;;;;;;27.90;22.52;;;9.20;99.90;;;;;;5051689;28;20029;-51
2022/10/08 01:25:56;;;;;;;26.88;21.73;;;9.30;99.90;;;;;;5051504;28;20124;-50
2022/10/08 01:28:24;;;;;;;34.70;23.50;;;9.40;99.90;;;;;;5050284;28;20033;-51
2022/10/08 01:31:12;;;;;;;36.15;21.58;;;9.30;99.90;;;;;;5051496;28;20477;-52
2022/10/08 01:33:54;;;;;;;39.08;21.02;;;9.30;99.90;;;;;;5051710;28;20116;-51
2022/10/08 01:36:22;;;;;;;32.78;23.40;;;9.30;99.90;;;;;;5051473;28;20028;-52
2022/10/08 01:38:52;;;;;;;114.55;25.35;;;9.30;99.90;;;;;;5050891;28;20029;-51
2022/10/08 01:41:21;;;;;;;115.07;25.63;;;9.20;99.90;;;;;;5051407;28;20025;-52
2022/10/08 01:43:54;;;;;;;136.20;25.05;;;9.10;99.90;;;;;;5053241;28;20112;-50
2022/10/08 01:46:25;;;;;;;42.60;22.90;;;9.00;99.90;;;;;;5071468;28;20029;-51
2022/10/08 01:48:55;;;;;;;107.55;25.48;;;9.00;99.90;;;;;;5071373;28;20141;-50
2022/10/08 01:51:31;;;;;;;56.42;24.40;;;9.00;99.90;;;;;;5071491;28;20399;-50
2022/10/08 01:54:00;;;;;;;143.32;25.02;;;9.00;99.90;;;;;;5071310;28;20395;-51
2022/10/08 01:56:28;;;;;;;78.78;24.02;;;9.00;99.90;;;;;;5071345;28;20048;-51
2022/10/08 01:59:00;;;;;;;77.93;25.55;;;8.90;99.90;;;;;;5071261;28;20103;-51
2022/10/08 02:01:36;;;;;;;75.22;24.80;;;8.90;99.90;;;;;;5071437;28;20107;-52
2022/10/08 02:06:54;;;;;;;167.38;28.80;;;9.00;99.90;;;;;;5071340;28;20545;-51
2022/10/08 02:09:21;;;;;;;96.40;27.17;;;8.90;99.90;;;;;;5071240;28;20048;-54
2022/10/08 02:11:47;;;;;;;125.85;27.95;;;8.90;99.90;;;;;;5071365;28;20111;-51
2022/10/08 02:14:13;;;;;;;97.18;25.75;;;8.90;99.90;;;;;;5071196;28;20512;-52
2022/10/08 02:16:48;;;;;;;139.18;26.55;;;8.90;99.90;;;;;;5071183;28;20162;-50
2022/10/08 02:19:32;;;;;;;139.55;29.45;;;8.90;99.90;;;;;;5070999;28;20036;-52
2022/10/08 02:22:00;;;;;;;93.45;27.80;;;8.90;99.90;;;;;;5071013;28;20372;-51
2022/10/08 02:24:33;;;;;;;159.25;26.70;;;8.90;99.90;;;;;;5070944;28;20036;-51
2022/10/08 02:27:03;;;;;;;192.98;30.42;;;8.80;99.90;;;;;;5070935;28;20035;-51
2022/10/08 02:29:38;;;;;;;95.72;26.38;;;8.80;99.90;;;;;;5071235;28;20414;-52
2022/10/08 02:32:07;;;;;;;149.02;29.42;;;8.80;99.90;;;;;;5070866;28;20020;-51
2022/10/08 02:34:36;;;;;;;92.10;27.67;;;8.80;99.90;;;;;;5071115;28;20035;-52
2022/10/08 02:37:19;;;;;;;129.90;28.52;;;8.80;99.90;;;;;;5070612;28;20387;-49
2022/10/08 02:40:00;;;;;;;102.80;26.63;;;8.80;99.90;;;;;;5070078;28;20024;-50
2022/10/08 02:42:30;;;;;;;107.57;26.33;;;8.80;99.90;;;;;;5070117;28;20025;-52
2022/10/08 02:45:06;;;;;;;101.38;27.67;;;8.80;99.90;;;;;;5070608;28;20386;-51
2022/10/08 02:47:34;;;;;;;112.10;29.42;;;8.70;99.90;;;;;;5069822;28;20434;-50
2022/10/08 02:50:03;;;;;;;150.05;28.65;;;8.70;99.90;;;;;;5071117;28;20468;-51
2022/10/08 02:52:37;;;;;;;107.85;27.98;;;8.70;99.90;;;;;;5074136;28;20525;-52
2022/10/08 02:55:13;;;;;;;32.65;23.50;;;8.80;99.90;;;;;;5074401;28;20036;-51
2022/10/08 02:57:44;;;;;;;23.52;19.98;;;8.80;99.90;;;;;;5074455;28;20021;-55
2022/10/08 03:00:11;;;;;;;55.65;20.88;;;8.90;99.90;;;;;;5074348;28;20409;-51
2022/10/08 03:02:51;;;;;;;62.10;20.25;;;8.90;99.90;;;;;;5072850;28;20494;-51
2022/10/08 03:05:18;;;;;;;70.28;21.60;;;8.90;99.90;;;;;;5074296;28;20048;-51
2022/10/08 03:07:45;;;;;;;102.68;22.80;;;8.80;99.90;;;;;;5074101;28;20391;-52
2022/10/08 03:10:11;;;;;;;92.03;21.52;;;8.70;99.90;;;;;;5073991;28;20126;-53
2022/10/08 03:12:38;;;;;;;112.18;21.10;;;8.70;99.90;;;;;;5072750;28;20017;-52
2022/10/08 03:15:04;;;;;;;140.52;25.42;;;8.60;99.90;;;;;;5073944;28;20456;-53
2022/10/08 03:17:40;;;;;;;93.03;21.10;;;8.60;99.90;;;;;;5074029;28;20020;-52
2022/10/08 03:20:08;;;;;;;49.38;22.80;;;8.40;99.90;;;;;;5073979;28;20032;-54
2022/10/08 03:22:34;;;;;;;69.28;26.80;;;8.40;99.90;;;;;;5073864;28;20032;-52
2022/10/08 03:25:00;;;;;;;115.25;29.83;;;8.30;99.90;;;;;;5073909;28;20043;-54
2022/10/08 03:27:26;;;;;;;71.28;27.25;;;8.30;99.90;;;;;;5073531;28;20382;-52
2022/10/08 03:29:55;;;;;;;63.95;26.75;;;8.30;99.90;;;;;;5073667;28;20028;-52
2022/10/08 03:32:22;;;;;;;130.85;31.42;;;8.20;99.90;;;;;;5073771;28;20020;-51
2022/10/08 03:34:48;;;;;;;99.03;28.50;;;8.20;99.90;;;;;;5073886;28;20009;-53
2022/10/08 03:37:14;;;;;;;76.00;26.48;;;8.30;99.90;;;;;;5073523;28;20025;-52
2022/10/08 03:39:41;;;;;;;128.02;26.85;;;8.20;99.90;;;;;;5073852;28;20035;-52
2022/10/08 03:42:08;;;;;;;110.10;26.83;;;8.20;99.90;;;;;;5073259;28;20329;-51
2022/10/08 03:44:33;;;;;;;154.15;25.50;;;8.20;99.90;;;;;;5073760;28;20028;-51
2022/10/08 03:46:59;;;;;;;135.48;26.02;;;8.20;99.90;;;;;;5073245;28;20027;-51
2022/10/08 03:49:25;;;;;;;96.88;24.95;;;8.20;99.90;;;;;;5073602;28;20024;-52
2022/10/08 03:51:50;;;;;;;141.65;28.55;;;8.30;99.90;;;;;;5073205;28;20020;-52
2022/10/08 03:54:16;;;;;;;89.75;25.52;;;8.30;99.90;;;;;;5073284;28;20052;-55
2022/10/08 03:56:41;;;;;;;154.98;24.98;;;8.30;99.90;;;;;;5073378;28;20028;-52
2022/10/08 03:59:07;;;;;;;123.80;27.52;;;8.30;99.90;;;;;;5073002;28;20027;-51
2022/10/08 04:01:33;;;;;;;83.97;24.58;;;8.40;99.90;;;;;;5072479;28;20403;-52
2022/10/08 04:03:58;;;;;;;139.98;27.95;;;8.40;99.90;;;;;;5073062;28;20082;-51
2022/10/08 04:06:24;;;;;;;84.82;26.35;;;8.40;99.90;;;;;;5072891;28;20021;-53
2022/10/08 04:08:50;;;;;;;155.02;30.52;;;8.40;99.90;;;;;;5073014;28;20044;-53
2022/10/08 04:11:17;;;;;;;95.65;31.25;;;8.40;99.90;;;;;;5071551;28;20480;-51
2022/10/08 04:13:44;;;;;;;123.70;28.13;;;8.50;99.90;;;;;;5073181;28;20376;-52
2022/10/08 04:16:12;;;;;;;107.22;29.30;;;8.40;99.90;;;;;;5072762;28;20036;-52
2022/10/08 04:18:38;;;;;;;86.15;28.08;;;8.40;99.90;;;;;;5073033;28;20431;-50
2022/10/08 04:21:06;;;;;;;87.22;28.85;;;8.30;99.90;;;;;;5072639;28;20029;-51
2022/10/08 04:23:34;;;;;;;97.28;29.45;;;8.40;99.90;;;;;;5072792;28;20029;-51
2022/10/08 04:26:00;;;;;;;71.13;28.55;;;8.40;99.90;;;;;;5072486;28;20024;-52
2022/10/08 04:28:26;;;;;;;73.10;28.15;;;8.40;99.90;;;;;;5072703;28;20081;-51
2022/10/08 04:31:03;;;;;;;122.55;31.15;;;8.40;99.90;;;;;;5072592;28;20690;-50
2022/10/08 04:33:31;;;;;;;121.88;28.98;;;8.40;99.90;;;;;;5072721;28;20032;-51
2022/10/08 04:35:57;;;;;;;124.32;29.10;;;8.40;99.90;;;;;;5072374;28;20071;-52
2022/10/08 04:38:24;;;;;;;50.17;27.55;;;8.40;99.90;;;;;;5072422;28;20356;-53
2022/10/08 04:41:04;;;;;;;36.22;25.25;;;8.50;99.90;;;;;;5072460;28;20028;-54
2022/10/08 04:43:30;;;;;;;60.08;24.70;;;8.50;99.90;;;;;;5072489;28;20025;-50
2022/10/08 04:45:56;;;;;;;90.10;26.42;;;8.50;99.90;;;;;;5072109;28;20020;-52
2022/10/08 04:48:22;;;;;;;99.07;25.98;;;8.40;99.90;;;;;;5072264;28;20032;-51
2022/10/08 04:50:47;;;;;;;82.68;24.45;;;8.50;99.90;;;;;;5072209;28;20460;-52
2022/10/08 04:53:13;;;;;;;75.13;25.63;;;8.40;99.90;;;;;;5072052;28;20031;-50
2022/10/08 04:55:38;;;;;;;49.15;23.75;;;8.50;99.90;;;;;;5072070;28;20052;-52
2022/10/08 04:58:04;;;;;;;63.58;24.65;;;8.40;99.90;;;;;;5072074;28;20102;-51
2022/10/08 05:00:30;;;;;;;34.95;23.30;;;8.40;99.90;;;;;;5072007;28;20597;-52
2022/10/08 05:02:55;;;;;;;59.97;23.60;;;8.40;99.90;;;;;;5071920;28;20070;-52
2022/10/08 05:05:22;;;;;;;34.55;23.23;;;8.40;99.90;;;;;;5071699;28;20035;-52
2022/10/08 05:07:48;;;;;;;46.45;24.35;;;8.40;99.90;;;;;;5072090;28;20411;-51
2022/10/08 05:10:14;;;;;;;93.13;25.63;;;8.40;99.90;;;;;;5071599;28;20045;-51
2022/10/08 05:12:39;;;;;;;67.25;26.40;;;8.30;99.90;;;;;;5071508;28;20020;-52
2022/10/08 05:15:06;;;;;;;74.13;24.48;;;8.30;99.90;;;;;;5071134;28;20024;-51
2022/10/08 05:17:32;;;;;;;57.92;25.83;;;8.30;99.90;;;;;;5059838;28;20064;-50
2022/10/08 05:19:58;;;;;;;63.42;26.67;;;8.30;99.90;;;;;;5050685;28;20079;-50
2022/10/08 05:22:23;;;;;;;63.53;23.48;;;8.30;99.90;;;;;;5064253;28;20029;-51
2022/10/08 05:24:49;;;;;;;63.47;23.10;;;8.40;99.90;;;;;;5070285;28;20070;-52
2022/10/08 05:27:14;;;;;;;68.78;24.92;;;8.40;99.90;;;;;;5070004;28;20497;-51
2022/10/08 05:29:40;;;;;;;73.45;24.77;;;8.30;99.90;;;;;;5070439;28;20024;-50
2022/10/08 05:32:06;;;;;;;68.47;24.98;;;8.30;99.90;;;;;;5070630;28;20046;-50
2022/10/08 05:34:31;;;;;;;53.47;22.42;;;8.20;99.90;;;;;;5070486;28;20111;-51
2022/10/08 05:36:57;;;;;;;59.25;24.00;;;8.20;99.90;;;;;;5068797;28;20075;-51
2022/10/08 05:39:22;;;;;;;48.38;21.67;;;8.30;99.90;;;;;;5070317;28;20021;-51
2022/10/08 05:41:48;;;;;;;77.53;23.75;;;8.30;99.90;;;;;;5070406;28;20021;-51
2022/10/08 05:44:14;;;;;;;107.45;23.50;;;8.30;99.90;;;;;;5070173;28;20027;-51
2022/10/08 05:46:39;;;;;;;84.30;23.48;;;8.30;99.90;;;;;;5070356;28;20036;-51
2022/10/08 05:49:07;;;;;;;105.57;24.83;;;8.30;99.90;;;;;;5069880;28;20031;-51
2022/10/08 05:51:33;;;;;;;94.55;25.50;;;8.40;99.90;;;;;;5070401;28;20020;-51
2022/10/08 05:54:00;;;;;;;110.03;24.02;;;8.40;99.90;;;;;;5069962;28;20083;-50
2022/10/08 05:56:27;;;;;;;98.47;26.05;;;8.40;99.90;;;;;;5070272;28;20020;-51
2022/10/08 05:58:53;;;;;;;88.60;25.65;;;8.50;99.90;;;;;;5070033;28;20035;-50
2022/10/08 06:01:21;;;;;;;104.13;24.88;;;8.60;99.90;;;;;;5069975;28;20184;-50
2022/10/08 06:03:52;;;;;;;27.25;21.88;;;8.60;99.90;;;;;;5070171;28;20059;-51
2022/10/08 06:06:19;;;;;;;81.15;24.67;;;8.70;99.90;;;;;;5069884;28;20498;-50
2022/10/08 06:08:45;;;;;;;95.55;22.10;;;8.90;99.90;;;;;;5069982;28;20113;-51
2022/10/08 06:11:11;;;;;;;94.57;20.90;;;8.90;99.90;;;;;;5069947;28;20035;-51
2022/10/08 06:13:37;;;;;;;36.65;21.10;;;9.00;99.90;;;;;;5068611;28;20471;-66
2022/10/08 06:16:09;;;;;;;81.47;20.70;;;9.10;99.90;;;;;;5069887;28;20025;-52
2022/10/08 06:18:40;;;;;;;65.13;20.42;;;9.10;99.90;;;;;;5068460;28;20033;-53
2022/10/08 06:21:09;;;;;;;96.72;20.13;;;9.10;99.90;;;;;;5069797;28;20013;-54
2022/10/08 06:23:37;;;;;;;59.03;20.55;;;9.10;99.90;;;;;;5070859;28;20113;-52
2022/10/08 06:26:08;;;;;;;47.58;20.02;;;9.20;99.90;;;;;;5073838;28;20124;-55
2022/10/08 06:28:36;;;;;;;99.68;22.48;;;9.30;99.90;;;;;;5074904;28;20021;-52
2022/10/08 06:31:02;;;;;;;143.95;22.13;;;9.20;99.90;;;;;;5073249;28;20017;-51
2022/10/08 06:33:28;;;;;;;70.95;21.02;;;9.20;99.90;;;;;;5074864;28;20070;-54
2022/10/08 06:35:54;;;;;;;116.50;19.67;;;9.30;99.90;;;;;;5074794;28;20605;-53
2022/10/08 06:38:20;;;;;;;95.22;22.90;;;9.30;99.90;;;;;;5074637;28;20028;-53
2022/10/08 06:40:45;;;;;;;131.10;19.23;;;9.30;99.90;;;;;;5074780;28;20074;-55
2022/10/08 06:43:13;;;;;;;47.22;18.40;;;9.50;99.90;;;;;;5074168;28;20032;-51
2022/10/08 06:45:39;;;;;;;100.82;19.02;;;9.50;99.90;;;;;;5074429;28;20431;-54
2022/10/08 06:48:05;;;;;;;64.78;17.50;;;9.70;99.90;;;;;;5074125;28;20060;-51
2022/10/08 06:50:31;;;;;;;53.15;15.98;;;9.90;99.90;;;;;;5073330;28;20056;-51
2022/10/08 06:52:57;;;;;;;84.85;16.58;;;10.20;99.90;;;;;;5074350;28;20071;-52
2022/10/08 06:55:23;;;;;;;34.17;16.55;;;10.20;99.90;;;;;;5074522;28;20056;-52
2022/10/08 06:57:48;;;;;;;18.80;15.27;;;10.20;99.90;;;;;;5074316;28;20108;-52
2022/10/08 07:00:14;;;;;;;36.88;16.95;;;10.30;99.90;;;;;;5074116;28;20446;-54
2022/10/08 07:02:40;;;;;;;17.67;14.27;;;10.30;99.90;;;;;;5074307;28;20029;-51
2022/10/08 07:05:06;;;;;;;27.88;15.75;;;10.40;99.90;;;;;;5074379;28;20033;-51
2022/10/08 07:07:31;;;;;;;19.20;15.38;;;10.50;99.90;;;;;;5074029;28;20038;-51
2022/10/08 07:09:57;;;;;;;29.60;15.35;;;10.60;99.90;;;;;;5073889;28;20128;-50
2022/10/08 07:12:23;;;;;;;36.50;14.98;;;10.60;99.90;;;;;;5074096;28;20028;-52
2022/10/08 07:14:48;;;;;;;26.77;15.00;;;10.60;99.90;;;;;;5072383;28;20020;-51
2022/10/08 07:17:14;;;;;;;19.23;15.95;;;10.50;99.90;;;;;;5073977;28;20017;-52
2022/10/08 07:19:40;;;;;;;23.25;16.23;;;10.50;99.90;;;;;;5073888;28;20093;-54
2022/10/08 07:22:05;;;;;;;16.13;14.43;;;10.30;99.90;;;;;;5073739;28;20511;-52
2022/10/08 07:24:31;;;;;;;17.65;15.63;;;10.50;99.90;;;;;;5073846;28;20101;-53
2022/10/08 07:26:57;;;;;;;16.67;14.98;;;10.40;99.90;;;;;;5073669;28;20037;-51
2022/10/08 07:29:23;;;;;;;21.88;17.83;;;10.30;99.90;;;;;;5072402;28;20021;-54
2022/10/08 07:31:49;;;;;;;17.13;15.45;;;10.30;99.90;;;;;;5073905;28;20031;-54
2022/10/08 07:34:15;;;;;;;19.48;15.60;;;10.50;99.90;;;;;;5072314;28;20021;-51
2022/10/08 07:36:41;;;;;;;21.00;16.52;;;10.60;99.90;;;;;;5069326;28;20480;-51
2022/10/08 07:39:10;;;;;;;17.17;15.38;;;10.80;99.90;;;;;;5072177;28;20031;-52
2022/10/08 07:41:36;;;;;;;16.08;14.48;;;10.70;99.90;;;;;;5072353;28;20024;-51
2022/10/08 07:44:03;;;;;;;24.83;17.33;;;10.80;99.90;;;;;;5071982;28;20112;-53
2022/10/08 07:46:32;;;;;;;17.52;15.45;;;10.90;99.90;;;;;;5071747;28;20030;-52
2022/10/08 07:49:00;;;;;;;15.50;13.95;;;11.00;99.90;;;;;;5071645;28;20031;-52
2022/10/08 07:51:27;;;;;;;12.30;11.05;;;11.10;99.90;;;;;;5072206;28;20024;-51
2022/10/08 07:53:53;;;;;;;14.35;12.00;;;11.40;99.90;;;;;;5071939;28;20445;-52
2022/10/08 07:56:20;;;;;;;12.73;11.45;;;11.50;99.90;;;;;;5072067;28;20047;-52
2022/10/08 07:58:47;;;;;;;11.85;8.15;;;11.70;99.90;;;;;;5071625;28;20017;-51
2022/10/08 08:01:19;;;;;;;9.77;8.52;;;12.10;99.90;;;;;;5071767;28;20028;-50
2022/10/08 08:03:45;;;;;;;9.02;8.23;;;12.50;99.90;;;;;;5071903;28;20035;-51
2022/10/08 08:06:15;;;;;;;8.80;8.00;;;12.80;99.90;;;;;;5071469;28;20028;-51
2022/10/08 08:08:42;;;;;;;13.25;8.43;;;13.00;99.90;;;;;;5071602;28;20734;-52
2022/10/08 08:11:10;;;;;;;8.98;8.07;;;13.20;99.90;;;;;;5071376;28;20055;-50
2022/10/08 08:13:38;;;;;;;12.82;8.90;;;13.30;99.90;;;;;;5071758;28;20020;-51
2022/10/08 08:16:07;;;;;;;8.60;7.80;;;13.30;99.90;;;;;;5071327;28;20099;-52
2022/10/08 08:18:36;;;;;;;8.95;8.05;;;13.40;99.90;;;;;;5071232;28;20025;-53
2022/10/08 08:21:14;;;;;;;8.82;7.85;;;13.40;99.90;;;;;;5071516;28;20036;-57
2022/10/08 08:23:43;;;;;;;9.57;7.63;;;13.30;99.90;;;;;;5071583;28;20055;-53
2022/10/08 08:26:11;;;;;;;10.85;7.75;;;13.20;99.90;;;;;;5070923;28;20395;-58
2022/10/08 08:28:37;;;;;;;7.35;6.65;;;13.40;99.90;;;;;;5071446;28;20081;-51
2022/10/08 08:31:14;;;;;;;7.25;6.40;;;13.90;99.90;;;;;;5069715;28;20044;-51
2022/10/08 08:33:40;;;;;;;8.18;6.57;;;14.30;99.90;;;;;;5071408;28;20324;-51
2022/10/08 08:36:06;;;;;;;7.57;6.55;;;14.30;99.90;;;;;;5071230;28;20021;-51
2022/10/08 08:38:36;;;;;;;9.27;6.75;;;14.60;99.90;;;;;;5071295;28;20028;-52
2022/10/08 08:41:33;;;;;;;7.65;6.85;;;14.90;99.90;;;;;;5070794;28;20025;-52
2022/10/08 08:44:07;;;;;;;9.45;6.63;;;15.10;99.90;;;;;;5070826;28;20396;-54
2022/10/08 08:46:39;;;;;;;15.63;7.30;;;15.40;99.90;;;;;;5070948;28;20021;-52
2022/10/08 08:49:39;;;;;;;8.07;7.38;;;15.50;99.90;;;;;;5070144;28;20025;-51
2022/10/08 08:52:06;;;;;;;18.63;7.95;;;15.30;99.90;;;;;;5069871;28;20032;-53
2022/10/08 08:54:32;;;;;;;7.68;6.93;;;15.10;99.90;;;;;;5070897;28;20029;-51
2022/10/08 08:57:25;;;;;;;8.02;7.20;;;15.40;99.90;;;;;;5070704;28;20201;-51
2022/10/08 08:59:55;;;;;;;12.50;7.53;;;15.80;99.90;;;;;;5070695;28;20025;-55
2022/10/08 09:02:29;;;;;;;8.13;7.10;;;16.10;99.90;;;;;;5070989;28;20028;-52
2022/10/08 09:04:59;;;;;;;9.38;6.63;;;16.10;99.90;;;;;;5071040;28;20056;-51
2022/10/08 09:07:32;;;;;;;12.27;6.95;;;16.20;99.90;;;;;;5070380;28;20573;-53
2022/10/08 09:09:58;;;;;;;8.80;6.57;;;16.10;99.90;;;;;;5070233;28;20071;-53
2022/10/08 09:12:37;;;;;;;10.18;6.22;;;16.20;99.90;;;;;;5070578;28;20048;-52
2022/10/08 09:15:18;;;;;;;7.90;6.72;;;16.40;99.90;;;;;;5050303;28;20504;-52
2022/10/08 09:17:46;;;;;;;9.65;6.35;;;16.20;99.90;;;;;;5050548;28;20123;-51
2022/10/08 09:20:16;;;;;;;10.77;7.28;;;16.10;99.90;;;;;;5050279;28;20115;-55
2022/10/08 09:22:44;;;;;;;8.45;6.95;;;15.90;99.90;;;;;;5050328;28;20036;-55
2022/10/08 09:25:15;;;;;;;7.60;6.07;;;15.90;99.90;;;;;;5050126;28;20228;-52
2022/10/08 09:27:54;;;;;;;9.90;5.97;;;15.80;99.90;;;;;;5050300;28;20366;-53
2022/10/08 09:30:28;;;;;;;11.38;6.50;;;15.70;99.90;;;;;;5050300;28;20389;-50
2022/10/08 09:32:56;;;;;;;8.57;7.28;;;15.80;99.90;;;;;;5050090;28;20021;-52
2022/10/08 09:35:23;;;;;;;9.02;7.15;;;16.10;99.90;;;;;;5048955;28;20059;-51
2022/10/08 09:37:50;;;;;;;8.82;5.93;;;16.50;99.90;;;;;;5050305;28;20047;-54
2022/10/08 09:40:21;;;;;;;11.43;7.00;;;17.00;99.90;;;;;;5049330;28;20451;-51
2022/10/08 09:43:06;;;;;;;7.40;6.13;;;17.40;99.90;;;;;;5069975;28;20025;-56
2022/10/08 09:45:37;;;;;;;11.75;5.30;;;17.70;99.90;;;;;;5069902;28;20039;-50
2022/10/08 09:48:29;;;;;;;8.82;5.78;;;18.10;99.90;;;;;;5069909;28;20457;-51
2022/10/08 09:51:04;;;;;;;8.55;5.30;;;18.60;99.90;;;;;;5049855;28;20071;-54
2022/10/08 09:53:45;;;;;;;6.40;5.50;;;18.60;99.90;;;;;;5050306;28;20043;-51
2022/10/08 09:56:13;;;;;;;20.08;5.60;;;18.80;99.90;;;;;;5049963;28;20037;-51
2022/10/08 09:58:52;;;;;;;13.25;6.43;;;19.00;99.90;;;;;;5049996;28;20056;-54
2022/10/08 10:01:18;;;;;;;8.73;5.93;;;19.10;99.90;;;;;;5054439;28;20048;-52
2022/10/08 10:03:54;;;;;;;8.00;5.78;;;19.20;99.90;;;;;;5055103;28;20025;-52
2022/10/08 10:06:37;;;;;;;7.18;6.03;;;19.40;99.90;;;;;;5071421;28;20029;-52
2022/10/08 10:09:24;;;;;;;9.38;6.32;;;19.50;99.90;;;;;;5074701;28;20045;-51
2022/10/08 10:12:11;;;;;;;6.45;5.43;;;19.50;99.90;;;;;;5075042;28;20016;-54
2022/10/08 10:14:55;;;;;;;11.00;6.80;;;19.90;99.90;;;;;;5075004;28;20519;-51
2022/10/08 10:17:38;;;;;;;11.88;6.05;;;20.10;99.90;;;;;;5074551;28;20517;-54
2022/10/08 10:20:16;;;;;;;8.00;6.63;;;20.40;99.90;;;;;;5074755;28;20040;-54
2022/10/08 10:22:45;;;;;;;11.60;6.85;;;20.30;99.90;;;;;;5074801;28;20070;-51
2022/10/08 10:25:29;;;;;;;14.70;7.30;;;20.70;99.90;;;;;;5074758;28;20074;-52
2022/10/08 10:28:01;;;;;;;9.65;6.45;;;20.50;99.90;;;;;;5074891;28;20428;-56
2022/10/08 10:30:28;;;;;;;10.13;6.18;;;20.40;99.90;;;;;;5074397;28;20032;-56
2022/10/08 10:33:12;;;;;;;10.05;5.38;;;20.30;99.90;;;;;;5073449;28;20023;-53
2022/10/08 10:35:47;;;;;;;11.50;5.70;;;20.30;99.90;;;;;;5074820;28;20053;-55
2022/10/08 10:38:27;;;;;;;7.75;5.80;;;20.30;99.90;;;;;;5073198;28;20082;-53
2022/10/08 10:41:26;;;;;;;11.18;7.65;;;20.10;99.90;;;;;;5074508;28;20036;-55
2022/10/08 10:43:56;;;;;;;12.90;6.20;;;19.90;99.90;;;;;;5074598;28;20131;-55
2022/10/08 10:46:35;;;;;;;14.13;6.55;;;20.20;99.90;;;;;;5073335;28;20040;-52
2022/10/08 10:49:01;;;;;;;11.25;6.15;;;20.50;99.90;;;;;;5074431;28;20137;-55
2022/10/08 10:52:01;;;;;;;9.45;6.00;;;20.80;99.90;;;;;;5074460;28;20035;-55
2022/10/08 10:54:53;;;;;;;12.38;6.25;;;20.90;99.90;;;;;;5037771;28;20515;-52
2022/10/08 10:57:28;;;;;;;10.98;6.18;;;20.70;99.90;;;;;;5041413;28;20599;-52
2022/10/08 11:00:16;;;;;;;10.30;6.03;;;20.70;99.90;;;;;;5042965;28;20068;-55
2022/10/08 11:02:50;;;;;;;15.55;6.78;;;20.90;99.90;;;;;;5043764;28;20037;-52
2022/10/08 11:05:25;;;;;;;16.05;6.20;;;20.90;99.90;;;;;;5042572;28;20166;-55
2022/10/08 11:08:16;;;;;;;18.25;5.53;;;20.60;99.90;;;;;;5043759;28;20112;-56
2022/10/08 11:11:13;;;;;;;11.82;5.47;;;20.70;99.90;;;;;;5041539;28;20055;-57
2022/10/08 11:14:34;;;;;;;18.65;5.88;;;21.60;99.90;;;;;;5043299;28;20107;-55
2022/10/08 11:17:03;;;;;;;19.00;4.80;;;23.40;97.30;;;;;;5038705;28;20044;-55
2022/10/08 11:19:50;;;;;;;14.02;5.18;;;24.10;95.30;;;;;;5043566;28;20163;-55
2022/10/08 11:22:25;;;;;;;24.05;5.18;;;23.60;95.10;;;;;;5042808;28;20059;-54
2022/10/08 11:25:01;;;;;;;13.48;4.68;;;23.00;96.10;;;;;;5043541;28;20037;-54
2022/10/08 11:27:32;;;;;;;20.58;4.97;;;23.10;95.90;;;;;;5042846;28;20037;-52
2022/10/08 11:30:13;;;;;;;12.23;4.13;;;23.40;95.30;;;;;;5042296;28;20128;-54
2022/10/08 11:32:42;;;;;;;17.38;4.22;;;24.00;94.50;;;;;;5042775;28;20403;-55
2022/10/08 11:35:10;;;;;;;11.75;4.10;;;25.00;91.90;;;;;;5042566;28;20032;-55
2022/10/08 11:37:54;;;;;;;17.33;5.07;;;25.10;91.40;;;;;;5042459;28;20021;-51
2022/10/08 11:40:40;;;;;;;16.27;5.18;;;24.40;91.30;;;;;;5043077;28;20031;-54
2022/10/08 11:43:34;;;;;;;16.80;3.88;;;24.50;92.00;;;;;;5042647;28;20091;-55
2022/10/08 11:46:32;;;;;;;;;;;23.70;91.50;;;;;;5043140;28;20061;-56
2022/10/08 11:48:59;;;;;;;16.30;4.55;;;23.20;92.30;;;;;;5059629;28;20306;-57
2022/10/08 11:51:25;;;;;;;12.23;3.47;;;23.30;91.80;;;;;;5042591;28;20056;-55
2022/10/08 11:54:14;;;;;;;10.95;3.78;;;24.80;90.30;;;;;;5042782;28;20029;-54
2022/10/08 11:56:50;;;;;;;16.90;4.63;;;24.10;90.50;;;;;;5042237;28;20411;-53
2022/10/08 11:59:25;;;;;;;12.82;3.95;;;23.90;90.40;;;;;;5041708;28;20112;-54
2022/10/08 12:01:54;;;;;;;14.18;4.13;;;22.90;91.30;;;;;;5042440;28;20091;-54
2022/10/08 12:04:29;;;;;;;19.55;4.35;;;22.70;92.30;;;;;;5042864;28;20029;-54
2022/10/08 12:07:13;;;;;;;19.15;4.05;;;22.40;92.70;;;;;;5041508;28;20048;-54
2022/10/08 12:09:57;;;;;;;16.52;3.65;;;22.20;92.50;;;;;;5042155;28;20052;-55
2022/10/08 12:12:23;;;;;;;11.85;3.80;;;22.20;93.20;;;;;;5042094;28;20032;-54
2022/10/08 12:14:49;;;;;;;21.27;3.80;;;22.60;93.40;;;;;;5042437;28;20032;-55
2022/10/08 12:17:15;;;;;;;19.58;4.25;;;22.70;91.90;;;;;;5041814;28;20044;-52
2022/10/08 12:19:43;;;;;;;24.95;4.40;;;23.30;91.40;;;;;;5042894;28;20036;-56
2022/10/08 12:22:15;;;;;;;10.98;3.47;;;23.00;92.40;;;;;;5041393;28;20036;-55
2022/10/08 12:24:43;;;;;;;23.45;4.00;;;23.10;91.80;;;;;;5041721;28;20293;-56
2022/10/08 12:27:45;;;;;;;21.83;4.38;;;23.20;92.00;;;;;;5042161;28;22548;-54
2022/10/08 12:30:15;;;;;;;18.30;4.40;;;22.40;91.90;;;;;;5067891;28;20175;-55
2022/10/08 12:32:40;;;;;;;21.27;3.67;;;24.10;90.10;;;;;;5055411;28;20377;-55
2022/10/08 12:35:29;;;;;;;13.30;2.75;;;24.70;85.90;;;;;;5052328;28;20025;-52
2022/10/08 12:38:17;;;;;;;16.15;3.40;;;24.50;87.90;;;;;;5051319;28;20037;-55
2022/10/08 12:40:54;;;;;;;13.38;3.60;;;24.40;85.20;;;;;;5052167;28;20407;-56
2022/10/08 12:43:58;;;;;;;9.65;3.00;;;25.30;85.70;;;;;;5052490;28;20021;-56
2022/10/08 12:46:39;;;;;;;;;;;26.80;78.40;;;;;;5052899;28;20043;-56
2022/10/08 12:49:23;;;;;;;28.92;3.20;;;28.90;76.60;;;;;;5052253;28;19927;-57
2022/10/08 12:52:02;;;;;;;11.20;2.28;;;28.90;70.60;;;;;;5052477;28;20024;-56
2022/10/08 12:54:30;;;;;;;25.13;3.35;;;30.80;67.60;;;;;;5050931;28;20024;-52
2022/10/08 12:56:56;;;;;;;16.70;3.05;;;31.70;62.50;;;;;;5052183;28;20033;-56
2022/10/08 12:59:25;;;;;;;21.30;4.45;;;31.90;60.00;;;;;;5051939;28;20389;-56
2022/10/08 13:01:52;;;;;;;18.75;3.42;;;30.60;59.70;;;;;;5051890;28;20025;-57